sensor_id;sensor_type;location;lat;lon;timestamp;pressure;altitude;pressure_sealevel;temperature;humidity
65614;BME280;52283;49.292;10.572;2023-03-01T00:02:15;97303.69;;;-2.16;100.00
65614;BME280;52283;49.292;10.572;2023-03-01T00:04:42;97306.78;;;-2.13;100.00
65614;BME280;52283;49.292;10.572;2023-03-01T00:07:08;97307.66;;;-2.24;100.00
65614;BME280;52283;49.292;10.572;2023-03-01T00:09:35;97302.25;;;-2.52;100.00
65614;BME280;52283;49.292;10.572;2023-03-01T00:12:02;97303.72;;;-2.23;100.00
65614;BME280;52283;49.292;10.572;2023-03-01T00:14:29;97303.44;;;-2.46;100.00
65614;BME280;52283;49.292;10.572;2023-03-01T00:16:55;97310.09;;;-2.54;100.00
65614;BME280;52283;49.292;10.572;2023-03-01T00:19:23;97308.06;;;-2.32;100.00
65614;BME280;52283;49.292;10.572;2023-03-01T00:21:50;97308.13;;;-2.54;100.00
65614;BME280;52283;49.292;10.572;2023-03-01T00:24:16;97320.19;;;-2.33;100.00
65614;BME280;52283;49.292;10.572;2023-03-01T00:26:43;97315.88;;;-2.27;100.00
65614;BME280;52283;49.292;10.572;2023-03-01T00:29:09;97318.94;;;-2.15;100.00
65614;BME280;52283;49.292;10.572;2023-03-01T00:31:36;97314.22;;;-2.10;100.00
65614;BME280;52283;49.292;10.572;2023-03-01T00:34:04;97318.59;;;-2.31;100.00
65614;BME280;52283;49.292;10.572;2023-03-01T00:36:34;97316.28;;;-2.29;100.00
65614;BME280;52283;49.292;10.572;2023-03-01T00:39:03;97322.56;;;-2.39;100.00
65614;BME280;52283;49.292;10.572;2023-03-01T00:41:29;97316.75;;;-2.48;100.00
65614;BME280;52283;49.292;10.572;2023-03-01T00:43:56;97317.06;;;-2.35;100.00
65614;BME280;52283;49.292;10.572;2023-03-01T00:46:24;97317.47;;;-2.37;100.00
65614;BME280;52283;49.292;10.572;2023-03-01T00:48:51;97314.31;;;-2.32;100.00
65614;BME280;52283;49.292;10.572;2023-03-01T00:51:19;97313.91;;;-2.27;100.00
65614;BME280;52283;49.292;10.572;2023-03-01T00:53:50;97315.91;;;-2.38;100.00
65614;BME280;52283;49.292;10.572;2023-03-01T00:56:18;97309.75;;;-2.67;100.00
65614;BME280;52283;49.292;10.572;2023-03-01T00:58:45;97304.19;;;-2.42;100.00
65614;BME280;52283;49.292;10.572;2023-03-01T01:01:13;97303.44;;;-2.46;100.00
65614;BME280;52283;49.292;10.572;2023-03-01T01:03:46;97296.47;;;-2.68;100.00
65614;BME280;52283;49.292;10.572;2023-03-01T01:06:15;97300.31;;;-2.48;100.00
65614;BME280;52283;49.292;10.572;2023-03-01T01:08:42;97300.38;;;-2.66;100.00
65614;BME280;52283;49.292;10.572;2023-03-01T01:11:10;97298.84;;;-2.81;100.00
65614;BME280;52283;49.292;10.572;2023-03-01T01:13:37;97294.47;;;-2.57;100.00
65614;BME280;52283;49.292;10.572;2023-03-01T01:16:04;97290.28;;;-2.87;100.00
65614;BME280;52283;49.292;10.572;2023-03-01T01:18:31;97283.50;;;-2.50;100.00
65614;BME280;52283;49.292;10.572;2023-03-01T01:20:57;97275.28;;;-2.47;100.00
65614;BME280;52283;49.292;10.572;2023-03-01T01:23:24;97272.94;;;-2.48;100.00
65614;BME280;52283;49.292;10.572;2023-03-01T01:25:50;97279.72;;;-2.85;100.00
65614;BME280;52283;49.292;10.572;2023-03-01T01:28:18;97270.63;;;-2.60;100.00
65614;BME280;52283;49.292;10.572;2023-03-01T01:30:45;97269.53;;;-2.77;100.00
65614;BME280;52283;49.292;10.572;2023-03-01T01:33:11;97265.59;;;-2.72;100.00
65614;BME280;52283;49.292;10.572;2023-03-01T01:35:38;97264.41;;;-2.71;100.00
65614;BME280;52283;49.292;10.572;2023-03-01T01:38:04;97254.97;;;-2.56;100.00
65614;BME280;52283;49.292;10.572;2023-03-01T01:40:31;97249.13;;;-2.58;100.00
65614;BME280;52283;49.292;10.572;2023-03-01T01:42:57;97256.94;;;-2.57;100.00
65614;BME280;52283;49.292;10.572;2023-03-01T01:45:31;97246.09;;;-2.78;100.00
65614;BME280;52283;49.292;10.572;2023-03-01T01:48:01;97249.59;;;-2.70;100.00
65614;BME280;52283;49.292;10.572;2023-03-01T01:50:29;97250.38;;;-2.81;100.00
65614;BME280;52283;49.292;10.572;2023-03-01T01:53:05;97239.88;;;-2.89;100.00
65614;BME280;52283;49.292;10.572;2023-03-01T01:55:33;97241.06;;;-3.01;100.00
65614;BME280;52283;49.292;10.572;2023-03-01T01:58:04;97237.53;;;-2.87;100.00
65614;BME280;52283;49.292;10.572;2023-03-01T02:00:33;97237.50;;;-2.80;100.00
65614;BME280;52283;49.292;10.572;2023-03-01T02:03:02;97236.72;;;-2.84;100.00
65614;BME280;52283;49.292;10.572;2023-03-01T02:05:36;97227.34;;;-2.83;100.00
65614;BME280;52283;49.292;10.572;2023-03-01T02:08:05;97225.34;;;-2.72;100.00
65614;BME280;52283;49.292;10.572;2023-03-01T02:10:33;97214.44;;;-2.83;100.00
65614;BME280;52283;49.292;10.572;2023-03-01T02:13:01;97229.28;;;-2.80;100.00
65614;BME280;52283;49.292;10.572;2023-03-01T02:15:33;97212.09;;;-2.81;100.00
65614;BME280;52283;49.292;10.572;2023-03-01T02:18:01;97225.81;;;-2.88;100.00
65614;BME280;52283;49.292;10.572;2023-03-01T02:20:33;97221.03;;;-2.73;100.00
65614;BME280;52283;49.292;10.572;2023-03-01T02:23:01;97218.31;;;-2.69;100.00
65614;BME280;52283;49.292;10.572;2023-03-01T02:25:36;97216.81;;;-2.88;100.00
65614;BME280;52283;49.292;10.572;2023-03-01T02:30:42;97195.38;;;-3.00;100.00
65614;BME280;52283;49.292;10.572;2023-03-01T02:33:24;97196.19;;;-3.07;100.00
65614;BME280;52283;49.292;10.572;2023-03-01T02:35:52;97194.25;;;-3.17;100.00
65614;BME280;52283;49.292;10.572;2023-03-01T02:38:19;97196.16;;;-3.00;100.00
65614;BME280;52283;49.292;10.572;2023-03-01T02:40:47;97194.97;;;-3.02;100.00
65614;BME280;52283;49.292;10.572;2023-03-01T02:43:16;97192.59;;;-2.93;100.00
65614;BME280;52283;49.292;10.572;2023-03-01T02:45:49;97190.72;;;-3.18;100.00
65614;BME280;52283;49.292;10.572;2023-03-01T02:48:16;97188.03;;;-3.25;100.00
65614;BME280;52283;49.292;10.572;2023-03-01T02:50:52;97188.41;;;-3.26;100.00
65614;BME280;52283;49.292;10.572;2023-03-01T02:53:27;97189.16;;;-3.12;100.00
65614;BME280;52283;49.292;10.572;2023-03-01T02:55:57;97189.94;;;-3.11;100.00
65614;BME280;52283;49.292;10.572;2023-03-01T02:58:25;97177.06;;;-3.18;100.00
65614;BME280;52283;49.292;10.572;2023-03-01T03:00:53;97185.25;;;-3.11;100.00
65614;BME280;52283;49.292;10.572;2023-03-01T03:03:21;97180.22;;;-3.37;100.00
65614;BME280;52283;49.292;10.572;2023-03-01T03:05:48;97182.53;;;-3.11;100.00
65614;BME280;52283;49.292;10.572;2023-03-01T03:08:14;97168.75;;;-2.93;100.00
65614;BME280;52283;49.292;10.572;2023-03-01T03:10:48;97165.66;;;-2.98;100.00
65614;BME280;52283;49.292;10.572;2023-03-01T03:13:15;97166.44;;;-2.98;100.00
65614;BME280;52283;49.292;10.572;2023-03-01T03:15:42;97164.47;;;-2.94;100.00
65614;BME280;52283;49.292;10.572;2023-03-01T03:18:15;97160.94;;;-2.87;100.00
65614;BME280;52283;49.292;10.572;2023-03-01T03:20:44;97167.69;;;-3.17;100.00
65614;BME280;52283;49.292;10.572;2023-03-01T03:23:12;97158.31;;;-3.16;100.00
65614;BME280;52283;49.292;10.572;2023-03-01T03:25:38;97154.38;;;-3.08;100.00
65614;BME280;52283;49.292;10.572;2023-03-01T03:28:06;97153.16;;;-2.99;100.00
65614;BME280;52283;49.292;10.572;2023-03-01T03:30:36;97160.66;;;-3.11;100.00
65614;BME280;52283;49.292;10.572;2023-03-01T03:33:04;97155.13;;;-3.00;100.00
65614;BME280;52283;49.292;10.572;2023-03-01T03:35:38;97148.53;;;-3.06;100.00
65614;BME280;52283;49.292;10.572;2023-03-01T03:38:07;97151.66;;;-3.08;100.00
65614;BME280;52283;49.292;10.572;2023-03-01T03:40:42;97149.31;;;-3.13;100.00
65614;BME280;52283;49.292;10.572;2023-03-01T03:43:11;97145.84;;;-3.24;100.00
65614;BME280;52283;49.292;10.572;2023-03-01T03:45:38;97145.88;;;-3.31;100.00
65614;BME280;52283;49.292;10.572;2023-03-01T03:48:07;97146.66;;;-3.30;100.00
65614;BME280;52283;49.292;10.572;2023-03-01T03:50:36;97148.63;;;-3.31;100.00
65614;BME280;52283;49.292;10.572;2023-03-01T03:53:05;97142.69;;;-3.19;100.00
65614;BME280;52283;49.292;10.572;2023-03-01T03:55:32;97143.13;;;-3.24;100.00
65614;BME280;52283;49.292;10.572;2023-03-01T03:58:00;97146.28;;;-3.40;100.00
65614;BME280;52283;49.292;10.572;2023-03-01T04:00:32;97142.72;;;-3.26;100.00
65614;BME280;52283;49.292;10.572;2023-03-01T04:02:59;97147.44;;;-3.33;100.00
65614;BME280;52283;49.292;10.572;2023-03-01T04:05:26;97143.13;;;-3.34;100.00
65614;BME280;52283;49.292;10.572;2023-03-01T04:07:55;97144.28;;;-3.25;100.00
65614;BME280;52283;49.292;10.572;2023-03-01T04:10:27;97143.47;;;-3.15;100.00
65614;BME280;52283;49.292;10.572;2023-03-01T04:12:54;97144.69;;;-3.26;100.00
65614;BME280;52283;49.292;10.572;2023-03-01T04:15:22;97136.50;;;-3.37;100.00
65614;BME280;52283;49.292;10.572;2023-03-01T04:17:50;97147.91;;;-3.53;100.00
65614;BME280;52283;49.292;10.572;2023-03-01T04:20:19;97145.94;;;-3.49;100.00
65614;BME280;52283;49.292;10.572;2023-03-01T04:22:50;97149.44;;;-3.59;100.00
65614;BME280;52283;49.292;10.572;2023-03-01T04:25:18;97140.06;;;-3.47;100.00
65614;BME280;52283;49.292;10.572;2023-03-01T04:27:45;97143.94;;;-3.41;100.00
65614;BME280;52283;49.292;10.572;2023-03-01T04:30:11;97139.63;;;-3.39;100.00
65614;BME280;52283;49.292;10.572;2023-03-01T04:32:38;97136.56;;;-3.51;100.00
65614;BME280;52283;49.292;10.572;2023-03-01T04:35:05;97138.09;;;-3.43;100.00
65614;BME280;52283;49.292;10.572;2023-03-01T04:37:31;97147.16;;;-3.71;100.00
65614;BME280;52283;49.292;10.572;2023-03-01T04:39:58;97142.44;;;-3.78;100.00
65614;BME280;52283;49.292;10.572;2023-03-01T04:42:25;97144.81;;;-3.73;100.00
65614;BME280;52283;49.292;10.572;2023-03-01T04:44:52;97152.56;;;-3.57;100.00
65614;BME280;52283;49.292;10.572;2023-03-01T04:47:18;97153.00;;;-3.69;100.00
65614;BME280;52283;49.292;10.572;2023-03-01T04:49:45;97156.91;;;-3.74;100.00
65614;BME280;52283;49.292;10.572;2023-03-01T04:52:11;97154.13;;;-3.56;100.00
65614;BME280;52283;49.292;10.572;2023-03-01T04:54:38;97147.91;;;-3.63;100.00
65614;BME280;52283;49.292;10.572;2023-03-01T04:57:04;97151.03;;;-3.69;100.00
65614;BME280;52283;49.292;10.572;2023-03-01T04:59:32;97158.88;;;-3.92;100.00
65614;BME280;52283;49.292;10.572;2023-03-01T05:02:01;97154.56;;;-3.79;100.00
65614;BME280;52283;49.292;10.572;2023-03-01T05:04:27;97146.75;;;-3.66;100.00
65614;BME280;52283;49.292;10.572;2023-03-01T05:06:54;97149.47;;;-3.70;100.00
65614;BME280;52283;49.292;10.572;2023-03-01T05:09:21;97143.22;;;-3.63;100.00
65614;BME280;52283;49.292;10.572;2023-03-01T05:11:47;97142.84;;;-3.69;100.00
65614;BME280;52283;49.292;10.572;2023-03-01T05:14:13;97151.81;;;-3.75;100.00
65614;BME280;52283;49.292;10.572;2023-03-01T05:16:41;97145.97;;;-3.66;100.00
65614;BME280;52283;49.292;10.572;2023-03-01T05:19:08;97136.56;;;-3.55;100.00
65614;BME280;52283;49.292;10.572;2023-03-01T05:21:40;97136.16;;;-3.46;100.00
65614;BME280;52283;49.292;10.572;2023-03-01T05:24:27;97134.63;;;-3.51;100.00
65614;BME280;52283;49.292;10.572;2023-03-01T05:26:54;97147.91;;;-3.53;100.00
65614;BME280;52283;49.292;10.572;2023-03-01T05:29:21;97142.06;;;-3.80;100.00
65614;BME280;52283;49.292;10.572;2023-03-01T05:31:52;97139.25;;;-3.30;100.00
65614;BME280;52283;49.292;10.572;2023-03-01T05:34:19;97131.44;;;-3.31;100.00
65614;BME280;52283;49.292;10.572;2023-03-01T05:36:48;97131.84;;;-3.44;100.00
65614;BME280;52283;49.292;10.572;2023-03-01T05:39:16;97135.34;;;-3.36;100.00
65614;BME280;52283;49.292;10.572;2023-03-01T05:41:42;97129.94;;;-3.54;100.00
65614;BME280;52283;49.292;10.572;2023-03-01T05:44:09;97126.81;;;-3.63;100.00
65614;BME280;52283;49.292;10.572;2023-03-01T05:46:37;97124.84;;;-3.59;100.00
65614;BME280;52283;49.292;10.572;2023-03-01T05:49:05;97122.13;;;-3.62;100.00
65614;BME280;52283;49.292;10.572;2023-03-01T05:51:31;97124.16;;;-3.88;100.00
65614;BME280;52283;49.292;10.572;2023-03-01T05:53:58;97121.78;;;-3.68;100.00
65614;BME280;52283;49.292;10.572;2023-03-01T05:56:25;97129.53;;;-3.56;100.00
65614;BME280;52283;49.292;10.572;2023-03-01T05:58:51;97127.97;;;-3.60;100.00
65614;BME280;52283;49.292;10.572;2023-03-01T06:01:18;97133.44;;;-3.57;100.00
65614;BME280;52283;49.292;10.572;2023-03-01T06:03:44;97122.56;;;-3.78;100.00
65614;BME280;52283;49.292;10.572;2023-03-01T06:06:12;97121.78;;;-3.72;100.00
65614;BME280;52283;49.292;10.572;2023-03-01T06:08:38;97129.22;;;-3.90;100.00
65614;BME280;52283;49.292;10.572;2023-03-01T06:11:05;97126.44;;;-3.65;100.00
65614;BME280;52283;49.292;10.572;2023-03-01T06:13:32;97121.75;;;-3.75;100.00
65614;BME280;52283;49.292;10.572;2023-03-01T06:15:59;97128.81;;;-3.85;100.00
65614;BME280;52283;49.292;10.572;2023-03-01T06:18:26;97124.47;;;-3.57;100.00
65614;BME280;52283;49.292;10.572;2023-03-01T06:20:53;97128.34;;;-3.48;100.00
65614;BME280;52283;49.292;10.572;2023-03-01T06:23:21;97125.28;;;-3.64;100.00
65614;BME280;52283;49.292;10.572;2023-03-01T06:25:47;97127.63;;;-3.77;100.00
65614;BME280;52283;49.292;10.572;2023-03-01T06:28:14;97128.38;;;-3.62;100.00
65614;BME280;52283;49.292;10.572;2023-03-01T06:30:40;97128.03;;;-3.71;100.00
65614;BME280;52283;49.292;10.572;2023-03-01T06:33:07;97123.72;;;-3.76;100.00
65614;BME280;52283;49.292;10.572;2023-03-01T06:35:34;97131.53;;;-3.81;100.00
65614;BME280;52283;49.292;10.572;2023-03-01T06:38:01;97129.53;;;-3.56;100.00
65614;BME280;52283;49.292;10.572;2023-03-01T06:40:31;97128.78;;;-3.63;100.00
65614;BME280;52283;49.292;10.572;2023-03-01T06:43:00;97127.25;;;-3.72;100.00
65614;BME280;52283;49.292;10.572;2023-03-01T06:45:27;97117.84;;;-3.53;100.00
65614;BME280;52283;49.292;10.572;2023-03-01T06:48:01;97121.34;;;-3.56;100.00
65614;BME280;52283;49.292;10.572;2023-03-01T06:50:28;97116.25;;;-3.50;100.00
65614;BME280;52283;49.292;10.572;2023-03-01T06:52:55;97107.69;;;-3.52;100.00
65614;BME280;52283;49.292;10.572;2023-03-01T06:55:21;97111.50;;;-3.35;100.00
65614;BME280;52283;49.292;10.572;2023-03-01T06:57:54;97117.88;;;-3.71;100.00
65614;BME280;52283;49.292;10.572;2023-03-01T07:00:21;97119.38;;;-3.55;100.00
65614;BME280;52283;49.292;10.572;2023-03-01T07:02:48;97114.69;;;-3.48;100.00
65614;BME280;52283;49.292;10.572;2023-03-01T07:05:14;97119.31;;;-3.34;100.00
65614;BME280;52283;49.292;10.572;2023-03-01T07:07:41;97116.19;;;-3.29;100.00
65614;BME280;52283;49.292;10.572;2023-03-01T07:10:09;97115.47;;;-3.54;100.00
65614;BME280;52283;49.292;10.572;2023-03-01T07:12:36;97118.59;;;-3.49;100.00
65614;BME280;52283;49.292;10.572;2023-03-01T07:15:04;97120.06;;;-3.23;100.00
65614;BME280;52283;49.292;10.572;2023-03-01T07:17:31;97121.56;;;-3.08;100.00
65614;BME280;52283;49.292;10.572;2023-03-01T07:19:58;97114.50;;;-3.01;100.00
65614;BME280;52283;49.292;10.572;2023-03-01T07:22:24;97109.03;;;-3.01;100.00
65614;BME280;52283;49.292;10.572;2023-03-01T07:24:50;97109.03;;;-3.01;100.00
65614;BME280;52283;49.292;10.572;2023-03-01T07:27:17;97095.25;;;-2.80;100.00
65614;BME280;52283;49.292;10.572;2023-03-01T07:29:43;97101.16;;;-2.85;100.00
65614;BME280;52283;49.292;10.572;2023-03-01T07:32:11;97098.84;;;-2.94;100.00
65614;BME280;52283;49.292;10.572;2023-03-01T07:34:38;97097.59;;;-2.79;100.00
65614;BME280;52283;49.292;10.572;2023-03-01T07:37:04;97105.00;;;-2.79;100.00
65614;BME280;52283;49.292;10.572;2023-03-01T07:39:31;97098.84;;;-2.35;100.00
65614;BME280;52283;49.292;10.572;2023-03-01T07:41:57;97095.78;;;-2.40;100.00
65614;BME280;52283;49.292;10.572;2023-03-01T07:44:24;97085.69;;;-2.54;100.00
65614;BME280;52283;49.292;10.572;2023-03-01T07:46:50;97089.03;;;-2.29;100.00
65614;BME280;52283;49.292;10.572;2023-03-01T07:49:22;97082.00;;;-2.30;100.00
65614;BME280;52283;49.292;10.572;2023-03-01T07:51:49;97078.88;;;-2.32;100.00
65614;BME280;52283;49.292;10.572;2023-03-01T07:54:15;97076.50;;;-2.26;100.00
65614;BME280;52283;49.292;10.572;2023-03-01T07:56:43;97076.28;;;-2.01;100.00
65614;BME280;52283;49.292;10.572;2023-03-01T07:59:09;97079.06;;;-2.05;100.00
65614;BME280;52283;49.292;10.572;2023-03-01T08:01:36;97080.56;;;-2.00;100.00
65614;BME280;52283;49.292;10.572;2023-03-01T08:04:02;97074.94;;;-1.82;100.00
65614;BME280;52283;49.292;10.572;2023-03-01T08:06:33;97077.31;;;-1.88;100.00
65614;BME280;52283;49.292;10.572;2023-03-01T08:09:00;97074.75;;;-1.00;100.00
65614;BME280;52283;49.292;10.572;2023-03-01T08:11:26;97054.63;;;-0.13;100.00
65614;BME280;52283;49.292;10.572;2023-03-01T08:13:54;97040.78;;;0.57;90.87
65614;BME280;52283;49.292;10.572;2023-03-01T08:16:20;97027.16;;;0.50;86.30
65614;BME280;52283;49.292;10.572;2023-03-01T08:18:47;97043.16;;;0.75;86.18
65614;BME280;52283;49.292;10.572;2023-03-01T08:21:15;97028.50;;;0.22;84.41
65614;BME280;52283;49.292;10.572;2023-03-01T08:23:43;97033.94;;;0.85;83.54
65614;BME280;52283;49.292;10.572;2023-03-01T08:26:11;97029.41;;;0.55;84.36
65614;BME280;52283;49.292;10.572;2023-03-01T08:28:38;97035.66;;;1.32;82.02
65614;BME280;52283;49.292;10.572;2023-03-01T08:31:14;97020.44;;;1.27;79.10
65614;BME280;52283;49.292;10.572;2023-03-01T08:33:41;97012.44;;;1.33;78.58
65614;BME280;52283;49.292;10.572;2023-03-01T08:36:07;97027.25;;;0.47;82.97
65614;BME280;52283;49.292;10.572;2023-03-01T08:38:34;97027.63;;;1.05;81.44
65614;BME280;52283;49.292;10.572;2023-03-01T08:41:03;97027.06;;;1.62;77.49
65614;BME280;52283;49.292;10.572;2023-03-01T08:43:30;97025.44;;;1.65;77.20
65614;BME280;52283;49.292;10.572;2023-03-01T08:45:56;97012.09;;;1.31;76.32
65614;BME280;52283;49.292;10.572;2023-03-01T08:48:23;97016.41;;;1.48;77.54
65614;BME280;52283;49.292;10.572;2023-03-01T08:50:50;97018.88;;;1.26;76.90
65614;BME280;52283;49.292;10.572;2023-03-01T08:53:16;97013.53;;;2.00;75.46
65614;BME280;52283;49.292;10.572;2023-03-01T08:55:43;97008.66;;;1.92;75.16
65614;BME280;52283;49.292;10.572;2023-03-01T08:58:11;97005.78;;;2.40;73.61
65614;BME280;52283;49.292;10.572;2023-03-01T09:00:38;97014.47;;;1.12;75.72
65614;BME280;52283;49.292;10.572;2023-03-01T09:03:05;97003.75;;;1.67;76.94
65614;BME280;52283;49.292;10.572;2023-03-01T09:05:32;97009.50;;;1.40;77.65
65614;BME280;52283;49.292;10.572;2023-03-01T09:07:59;97004.44;;;1.71;76.90
65614;BME280;52283;49.292;10.572;2023-03-01T09:10:25;96996.34;;;1.80;75.41
65614;BME280;52283;49.292;10.572;2023-03-01T09:12:52;96993.56;;;1.96;74.31
65614;BME280;52283;49.292;10.572;2023-03-01T09:15:20;96979.88;;;2.22;72.43
65614;BME280;52283;49.292;10.572;2023-03-01T09:17:46;96976.00;;;2.19;71.08
65614;BME280;52283;49.292;10.572;2023-03-01T09:20:13;96983.44;;;1.28;73.41
65614;BME280;52283;49.292;10.572;2023-03-01T09:22:39;96991.00;;;1.73;74.78
65614;BME280;52283;49.292;10.572;2023-03-01T09:25:06;96968.03;;;3.04;70.51
65614;BME280;52283;49.292;10.572;2023-03-01T09:27:33;96949.38;;;3.34;69.05
65614;BME280;52283;49.292;10.572;2023-03-01T09:29:59;96953.13;;;3.02;69.30
65614;BME280;52283;49.292;10.572;2023-03-01T09:32:29;96961.94;;;2.71;68.57
65614;BME280;52283;49.292;10.572;2023-03-01T09:34:56;96961.03;;;1.91;69.36
65614;BME280;52283;49.292;10.572;2023-03-01T09:37:30;96958.41;;;3.09;67.40
65614;BME280;52283;49.292;10.572;2023-03-01T09:39:57;96942.50;;;3.26;67.55
65614;BME280;52283;49.292;10.572;2023-03-01T09:42:24;96959.44;;;2.48;69.79
65614;BME280;52283;49.292;10.572;2023-03-01T09:44:54;96949.69;;;3.23;67.86
65614;BME280;52283;49.292;10.572;2023-03-01T09:47:24;96938.53;;;3.87;64.65
65614;BME280;52283;49.292;10.572;2023-03-01T09:49:58;96922.47;;;3.94;63.52
65614;BME280;52283;49.292;10.572;2023-03-01T09:52:34;96946.94;;;3.23;64.81
65614;BME280;52283;49.292;10.572;2023-03-01T09:55:08;96948.81;;;3.26;65.84
65614;BME280;52283;49.292;10.572;2023-03-01T09:57:40;96935.31;;;4.23;63.46
65614;BME280;52283;49.292;10.572;2023-03-01T10:00:19;96927.56;;;4.62;62.06
65614;BME280;52283;49.292;10.572;2023-03-01T10:02:49;96939.19;;;3.91;62.60
65614;BME280;52283;49.292;10.572;2023-03-01T10:05:36;96937.84;;;3.48;64.20
65614;BME280;52283;49.292;10.572;2023-03-01T10:08:24;96929.59;;;4.17;62.41
65614;BME280;52283;49.292;10.572;2023-03-01T10:10:55;96950.91;;;3.10;66.26
65614;BME280;52283;49.292;10.572;2023-03-01T10:13:26;96939.06;;;3.94;64.03
65614;BME280;52283;49.292;10.572;2023-03-01T10:15:57;96917.28;;;4.62;61.96
65614;BME280;52283;49.292;10.572;2023-03-01T10:18:29;96910.94;;;4.83;60.18
65614;BME280;52283;49.292;10.572;2023-03-01T10:21:00;96919.06;;;4.56;61.37
65614;BME280;52283;49.292;10.572;2023-03-01T10:23:30;96920.25;;;4.46;59.48
65614;BME280;52283;49.292;10.572;2023-03-01T10:26:12;96925.19;;;4.07;61.42
65614;BME280;52283;49.292;10.572;2023-03-01T10:28:49;96924.34;;;3.63;62.75
65614;BME280;52283;49.292;10.572;2023-03-01T10:31:22;96904.47;;;4.34;60.25
65614;BME280;52283;49.292;10.572;2023-03-01T10:33:53;96902.72;;;4.49;60.20
65614;BME280;52283;49.292;10.572;2023-03-01T10:36:22;96907.25;;;4.86;60.71
65614;BME280;52283;49.292;10.572;2023-03-01T10:38:50;96887.97;;;4.52;58.24
65614;BME280;52283;49.292;10.572;2023-03-01T10:41:20;96902.00;;;4.79;59.21
65614;BME280;52283;49.292;10.572;2023-03-01T10:43:50;96888.41;;;5.12;57.47
65614;BME280;52283;49.292;10.572;2023-03-01T10:46:24;96886.16;;;4.58;58.02
65614;BME280;52283;49.292;10.572;2023-03-01T10:49:06;96879.00;;;4.70;58.11
65614;BME280;52283;49.292;10.572;2023-03-01T10:51:35;96884.41;;;4.42;59.20
65614;BME280;52283;49.292;10.572;2023-03-01T10:54:09;96884.09;;;4.18;59.73
65614;BME280;52283;49.292;10.572;2023-03-01T10:56:49;96873.75;;;4.63;58.32
65614;BME280;52283;49.292;10.572;2023-03-01T10:59:27;96860.41;;;4.70;59.17
65614;BME280;52283;49.292;10.572;2023-03-01T11:02:16;96852.75;;;5.24;57.63
65614;BME280;52283;49.292;10.572;2023-03-01T11:04:59;96842.41;;;4.75;56.76
65614;BME280;52283;49.292;10.572;2023-03-01T11:07:28;96843.66;;;5.32;55.71
65614;BME280;52283;49.292;10.572;2023-03-01T11:09:54;96851.69;;;4.81;57.21
65614;BME280;52283;49.292;10.572;2023-03-01T11:12:21;96837.84;;;5.48;56.08
65614;BME280;52283;49.292;10.572;2023-03-01T11:14:49;96826.06;;;5.08;56.24
65614;BME280;52283;49.292;10.572;2023-03-01T11:17:20;96833.47;;;4.62;57.17
65614;BME280;52283;49.292;10.572;2023-03-01T11:20:00;96823.72;;;4.57;58.22
65614;BME280;52283;49.292;10.572;2023-03-01T11:22:28;96817.97;;;5.59;55.98
65614;BME280;52283;49.292;10.572;2023-03-01T11:24:56;96805.06;;;5.84;55.17
65614;BME280;52283;49.292;10.572;2023-03-01T11:27:26;96804.28;;;5.83;54.01
65614;BME280;52283;49.292;10.572;2023-03-01T11:29:55;96794.41;;;5.73;53.54
65614;BME280;52283;49.292;10.572;2023-03-01T11:32:29;96801.03;;;5.48;54.17
65614;BME280;52283;49.292;10.572;2023-03-01T11:35:02;96785.34;;;5.91;53.83
65614;BME280;52283;49.292;10.572;2023-03-01T11:37:35;96779.09;;;6.65;52.89
65614;BME280;52283;49.292;10.572;2023-03-01T11:40:11;96784.22;;;6.67;51.06
65614;BME280;52283;49.292;10.572;2023-03-01T11:42:48;96768.94;;;6.62;50.74
65614;BME280;52283;49.292;10.572;2023-03-01T11:45:16;96772.00;;;6.22;51.33
65614;BME280;52283;49.292;10.572;2023-03-01T11:47:54;96774.41;;;6.48;51.94
65614;BME280;52283;49.292;10.572;2023-03-01T11:50:28;96766.22;;;5.93;51.40
65614;BME280;52283;49.292;10.572;2023-03-01T11:53:05;96777.94;;;5.97;52.10
65614;BME280;52283;49.292;10.572;2023-03-01T11:55:48;96763.25;;;6.15;50.85
65614;BME280;52283;49.292;10.572;2023-03-01T11:58:29;96751.03;;;6.63;50.25
65614;BME280;52283;49.292;10.572;2023-03-01T12:01:06;96766.75;;;6.24;51.55
65614;BME280;52283;49.292;10.572;2023-03-01T12:03:47;96758.84;;;5.53;51.55
65614;BME280;52283;49.292;10.572;2023-03-01T12:06:35;96764.56;;;6.47;50.35
65614;BME280;52283;49.292;10.572;2023-03-01T12:09:25;96750.06;;;6.76;50.33
65614;BME280;52283;49.292;10.572;2023-03-01T12:12:11;96738.56;;;7.16;49.39
65614;BME280;52283;49.292;10.572;2023-03-01T12:14:51;96743.19;;;6.62;49.67
65614;BME280;52283;49.292;10.572;2023-03-01T12:17:31;96728.28;;;6.50;49.48
65614;BME280;52283;49.292;10.572;2023-03-01T12:20:14;96734.84;;;6.29;50.02
65614;BME280;52283;49.292;10.572;2023-03-01T12:22:53;96736.81;;;6.37;50.56
65614;BME280;52283;49.292;10.572;2023-03-01T12:25:29;96723.94;;;7.06;49.65
65614;BME280;52283;49.292;10.572;2023-03-01T12:28:19;96714.50;;;6.23;50.47
65614;BME280;52283;49.292;10.572;2023-03-01T12:30:59;96710.81;;;7.07;50.42
65614;BME280;52283;49.292;10.572;2023-03-01T12:33:34;96718.75;;;6.75;51.12
65614;BME280;52283;49.292;10.572;2023-03-01T12:36:28;96703.31;;;6.98;48.87
65614;BME280;52283;49.292;10.572;2023-03-01T12:39:08;96709.25;;;6.91;49.35
65614;BME280;52283;49.292;10.572;2023-03-01T12:41:53;96693.16;;;6.95;48.22
65614;BME280;52283;49.292;10.572;2023-03-01T12:44:43;96699.31;;;6.99;49.14
65614;BME280;52283;49.292;10.572;2023-03-01T12:47:24;96681.94;;;7.28;48.60
65614;BME280;52283;49.292;10.572;2023-03-01T12:49:58;96677.19;;;6.57;48.46
65614;BME280;52283;49.292;10.572;2023-03-01T12:52:33;96671.91;;;7.07;50.71
65614;BME280;52283;49.292;10.572;2023-03-01T12:55:07;96656.97;;;7.87;46.69
65614;BME280;52283;49.292;10.572;2023-03-01T12:57:38;96652.53;;;7.65;47.67
65614;BME280;52283;49.292;10.572;2023-03-01T13:00:17;96664.91;;;6.72;48.50
65614;BME280;52283;49.292;10.572;2023-03-01T13:02:49;96664.09;;;7.20;48.05
65614;BME280;52283;49.292;10.572;2023-03-01T13:05:24;96657.53;;;6.93;48.95